createdAt,value
2023-01-19T00:00:53.896Z,-2.92
2023-01-19T00:03:21.920Z,-3.24
2023-01-19T00:05:49.202Z,-2.42
2023-01-19T00:08:17.166Z,-2.40
2023-01-19T00:10:46.485Z,-2.42
2023-01-19T00:13:14.999Z,-2.65
2023-01-19T00:15:42.157Z,-2.83
2023-01-19T00:18:10.835Z,-2.38
2023-01-19T00:20:39.247Z,-2.42
2023-01-19T00:23:08.411Z,-2.37
2023-01-19T00:25:36.161Z,-2.61
2023-01-19T00:28:03.120Z,-2.49
2023-01-19T00:30:30.135Z,-2.43
2023-01-19T00:32:57.141Z,-3.01
2023-01-19T00:35:24.332Z,-2.74
2023-01-19T00:37:51.378Z,-2.21
2023-01-19T00:40:18.458Z,-2.19
2023-01-19T00:42:46.144Z,-2.37
2023-01-19T00:45:24.355Z,-2.60
2023-01-19T00:47:57.224Z,-2.50
2023-01-19T00:50:29.624Z,-2.21
2023-01-19T00:52:58.056Z,-2.49
2023-01-19T00:55:25.141Z,-2.17
2023-01-19T00:57:52.055Z,-2.84
2023-01-19T01:00:20.157Z,-2.29
2023-01-19T01:02:48.299Z,-2.25
2023-01-19T01:05:16.351Z,-2.27
2023-01-19T01:07:45.492Z,-2.70
2023-01-19T01:10:16.881Z,-2.36
2023-01-19T01:12:55.954Z,-2.71
2023-01-19T01:15:31.087Z,-2.40
2023-01-19T01:17:58.059Z,-2.43
2023-01-19T01:20:28.158Z,-2.54
2023-01-19T01:22:56.463Z,-2.34
2023-01-19T01:25:25.109Z,-2.15
2023-01-19T01:27:52.674Z,-2.23
2023-01-19T01:30:20.516Z,-2.28
2023-01-19T01:32:47.474Z,-2.21
2023-01-19T01:35:15.024Z,-2.40
2023-01-19T01:37:43.190Z,-2.27
2023-01-19T01:40:13.455Z,-2.80
2023-01-19T01:42:40.773Z,-2.76
2023-01-19T01:45:38.537Z,-2.82
2023-01-19T01:48:10.704Z,-2.12
2023-01-19T01:51:04.111Z,-2.17
2023-01-19T01:53:34.141Z,-2.59
2023-01-19T01:56:04.778Z,-2.56
2023-01-19T01:58:33.155Z,-2.35
2023-01-19T02:01:18.611Z,-2.40
2023-01-19T02:03:46.014Z,-2.25
2023-01-19T02:06:14.842Z,-2.05
2023-01-19T02:09:00.297Z,-2.06
2023-01-19T02:11:47.638Z,-3.11
2023-01-19T02:14:22.127Z,-2.98
2023-01-19T02:16:49.491Z,-2.34
2023-01-19T02:19:24.341Z,-1.93
2023-01-19T02:22:23.975Z,-2.58
2023-01-19T02:24:52.114Z,-2.57
2023-01-19T02:27:20.429Z,-2.34
2023-01-19T02:29:50.084Z,-2.70
2023-01-19T02:32:19.897Z,-2.43
2023-01-19T02:34:49.951Z,-2.19
2023-01-19T02:37:21.740Z,-3.50
2023-01-19T02:40:06.813Z,-2.53
2023-01-19T02:42:40.085Z,-2.53
2023-01-19T02:45:09.845Z,-3.08
2023-01-19T02:47:43.534Z,-1.90
2023-01-19T02:50:46.264Z,-1.91
2023-01-19T02:53:30.706Z,-1.84
2023-01-19T02:56:11.432Z,-2.30
2023-01-19T02:59:05.055Z,-1.92
2023-01-19T03:01:57.273Z,-2.73
2023-01-19T03:04:29.285Z,-2.00
2023-01-19T03:07:03.742Z,-2.90
2023-01-19T03:09:58.304Z,-2.00
2023-01-19T03:12:44.818Z,-2.22
2023-01-19T03:15:29.178Z,-3.23
2023-01-19T03:18:01.011Z,-3.26
2023-01-19T03:20:29.532Z,-2.64
2023-01-19T03:23:04.737Z,-2.43
2023-01-19T03:25:37.506Z,-2.65
2023-01-19T03:28:05.260Z,-2.87
2023-01-19T03:30:39.354Z,-2.25
2023-01-19T03:33:15.623Z,-3.53
2023-01-19T03:35:52.258Z,-2.89
2023-01-19T03:38:25.783Z,-2.60
2023-01-19T03:41:01.865Z,-3.56
2023-01-19T03:43:34.937Z,-3.32
2023-01-19T03:46:09.503Z,-2.49
2023-01-19T03:48:40.597Z,-3.52
2023-01-19T03:51:11.272Z,-2.47
2023-01-19T03:53:38.753Z,-2.06
2023-01-19T03:56:09.800Z,-3.40
2023-01-19T03:58:39.823Z,-2.91
2023-01-19T04:01:07.179Z,-2.83
2023-01-19T04:03:34.458Z,-2.33
2023-01-19T04:06:01.678Z,-2.75
2023-01-19T04:08:29.024Z,-2.10
2023-01-19T04:10:58.146Z,-3.02
2023-01-19T04:13:30.286Z,-3.11
2023-01-19T04:16:07.187Z,-3.46
2023-01-19T04:18:35.004Z,-2.86
2023-01-19T04:21:03.820Z,-3.11
2023-01-19T04:23:34.131Z,-2.45
2023-01-19T04:26:08.283Z,-3.32
2023-01-19T04:28:37.427Z,-3.06
2023-01-19T04:31:06.154Z,-3.04
2023-01-19T04:33:34.089Z,-2.80
2023-01-19T04:36:02.254Z,-2.60
2023-01-19T04:38:31.218Z,-3.40
2023-01-19T04:40:58.415Z,-3.11
2023-01-19T04:43:25.676Z,-3.50
2023-01-19T04:45:53.150Z,-2.63
2023-01-19T04:48:20.568Z,-2.80
2023-01-19T04:50:47.833Z,-2.73
2023-01-19T04:53:18.738Z,-3.13
2023-01-19T04:55:46.955Z,-2.30
2023-01-19T04:58:14.456Z,-3.15
2023-01-19T05:00:41.673Z,-2.28
2023-01-19T05:03:11.367Z,-2.87
2023-01-19T05:05:38.836Z,-2.64
2023-01-19T05:08:09.144Z,-3.06
2023-01-19T05:10:36.872Z,-2.93
2023-01-19T05:13:04.582Z,-2.33
2023-01-19T05:15:31.705Z,-3.55
2023-01-19T05:17:58.920Z,-2.99
2023-01-19T05:20:26.247Z,-3.58
2023-01-19T05:22:53.852Z,-2.40
2023-01-19T05:25:21.341Z,-2.70
2023-01-19T05:27:48.757Z,-3.28
2023-01-19T05:30:19.598Z,-3.38
2023-01-19T05:32:46.925Z,-3.40
2023-01-19T05:35:15.396Z,-2.70
2023-01-19T05:37:44.661Z,-3.36
2023-01-19T05:40:33.649Z,-2.32
2023-01-19T05:43:02.608Z,-2.55
2023-01-19T05:45:29.825Z,-2.64
2023-01-19T05:47:57.435Z,-3.32
2023-01-19T05:50:24.595Z,-2.77
2023-01-19T05:52:53.573Z,-3.06
2023-01-19T05:55:22.545Z,-2.83
2023-01-19T05:57:49.723Z,-2.74
2023-01-19T06:00:17.076Z,-2.92
2023-01-19T06:02:44.386Z,-2.91
2023-01-19T06:05:11.520Z,-2.73
2023-01-19T06:07:38.575Z,-1.90
2023-01-19T06:10:39.663Z,-2.05
2023-01-19T06:13:07.255Z,-2.23
2023-01-19T06:15:34.541Z,-2.71
2023-01-19T06:18:01.785Z,-2.03
2023-01-19T06:20:29.117Z,-2.86
2023-01-19T06:22:59.453Z,-2.19
2023-01-19T06:25:26.799Z,-2.15
2023-01-19T06:27:54.258Z,-2.44
2023-01-19T06:30:21.584Z,-2.28
2023-01-19T06:32:48.777Z,-2.35
2023-01-19T06:35:16.041Z,-2.34
2023-01-19T06:37:43.175Z,-2.32
2023-01-19T06:40:12.464Z,-1.95
2023-01-19T06:42:40.487Z,-2.42
2023-01-19T06:45:09.942Z,-3.01
2023-01-19T06:47:37.852Z,-2.25
2023-01-19T06:50:05.261Z,-1.78
2023-01-19T06:52:42.769Z,-2.52
2023-01-19T06:55:11.425Z,-2.84
2023-01-19T06:57:39.272Z,-2.85
2023-01-19T07:00:09.226Z,-2.93
2023-01-19T07:02:37.442Z,-2.08
2023-01-19T07:05:07.282Z,-2.69
2023-01-19T07:07:34.368Z,-1.82
2023-01-19T07:10:01.539Z,-1.75
2023-01-19T07:12:31.601Z,-2.78
2023-01-19T07:14:58.696Z,-2.62
2023-01-19T07:17:28.773Z,-2.02
2023-01-19T07:19:56.032Z,-2.81
2023-01-19T07:22:23.330Z,-2.53
2023-01-19T07:24:50.632Z,-3.00
2023-01-19T07:27:18.177Z,-2.07
2023-01-19T07:29:45.568Z,-2.64
2023-01-19T07:32:13.280Z,-2.95
2023-01-19T07:34:40.671Z,-2.87
2023-01-19T07:37:08.058Z,-3.02
2023-01-19T07:39:36.891Z,-2.87
2023-01-19T07:42:04.616Z,-2.30
2023-01-19T07:44:31.844Z,-2.38
2023-01-19T07:46:59.946Z,-2.34
2023-01-19T07:50:05.837Z,-2.73
2023-01-19T07:52:32.959Z,-2.40
2023-01-19T07:55:00.123Z,-2.14
2023-01-19T07:57:30.088Z,-1.38
2023-01-19T07:59:57.005Z,-2.09
2023-01-19T08:02:24.180Z,-1.90
2023-01-19T08:04:51.027Z,-1.50
2023-01-19T08:07:18.348Z,-1.34
2023-01-19T08:09:45.197Z,-1.57
2023-01-19T08:12:12.563Z,-1.90
2023-01-19T08:14:48.898Z,-1.95
2023-01-19T08:17:15.900Z,-2.13
2023-01-19T08:19:43.585Z,-1.53
2023-01-19T08:22:10.575Z,-1.24
2023-01-19T08:24:37.659Z,-1.22
2023-01-19T08:27:05.088Z,-1.14
2023-01-19T08:29:33.959Z,-1.17
2023-01-19T08:32:02.984Z,-1.46
2023-01-19T08:34:31.208Z,-1.06
2023-01-19T08:36:58.972Z,-1.09
2023-01-19T08:39:25.961Z,-1.17
2023-01-19T08:41:52.868Z,-1.30
2023-01-19T08:44:19.903Z,-1.08
2023-01-19T08:46:47.481Z,-1.28
2023-01-19T08:49:14.386Z,-1.35
2023-01-19T08:51:41.337Z,-1.40
2023-01-19T08:54:08.203Z,-1.15
2023-01-19T08:56:35.042Z,-1.27
2023-01-19T08:59:11.877Z,-1.33
2023-01-19T09:01:41.523Z,-1.01
2023-01-19T09:04:08.675Z,-1.05
2023-01-19T09:06:35.576Z,-0.97
2023-01-19T09:09:02.773Z,-1.19
2023-01-19T09:11:31.200Z,-0.94
2023-01-19T09:13:57.945Z,-0.78
2023-01-19T09:16:27.217Z,-0.97
2023-01-19T09:18:54.416Z,-0.88
2023-01-19T09:21:21.285Z,-0.77
2023-01-19T09:23:49.634Z,-0.98
2023-01-19T09:26:16.779Z,-0.82
2023-01-19T09:28:43.705Z,-1.02
2023-01-19T09:31:10.842Z,-1.17
2023-01-19T09:33:38.043Z,-0.87
2023-01-19T09:36:05.111Z,-0.99
2023-01-19T09:38:33.156Z,-0.93
2023-01-19T09:41:01.373Z,-0.85
2023-01-19T09:43:54.643Z,-0.73
2023-01-19T09:46:30.349Z,-0.49
2023-01-19T09:48:59.764Z,-0.63
2023-01-19T09:51:35.085Z,-0.34
2023-01-19T09:54:17.228Z,0.27
2023-01-19T09:56:46.156Z,0.58
2023-01-19T09:59:23.917Z,0.52
2023-01-19T10:02:23.872Z,0.22
2023-01-19T10:05:14.993Z,0.14
2023-01-19T10:08:03.947Z,0.09
2023-01-19T10:10:41.205Z,-0.04
2023-01-19T10:13:44.870Z,0.09
2023-01-19T10:16:31.693Z,0.10
2023-01-19T10:19:13.073Z,0.23
2023-01-19T10:21:44.863Z,0.18
2023-01-19T10:24:20.388Z,0.45
2023-01-19T10:26:51.696Z,0.46
2023-01-19T10:29:34.905Z,0.73
2023-01-19T10:32:09.115Z,0.65
2023-01-19T10:34:36.952Z,0.55
2023-01-19T10:37:17.562Z,0.62
2023-01-19T10:39:54.055Z,0.51
2023-01-19T10:42:21.240Z,0.67
2023-01-19T10:44:49.809Z,0.61
2023-01-19T10:47:19.265Z,0.92
2023-01-19T10:49:48.145Z,1.46
2023-01-19T10:52:32.127Z,1.17
2023-01-19T10:55:00.673Z,1.50
2023-01-19T10:57:38.420Z,1.55
2023-01-19T11:00:08.102Z,1.64
2023-01-19T11:02:35.144Z,1.13
2023-01-19T11:05:31.857Z,1.27
2023-01-19T11:07:59.136Z,1.45
2023-01-19T11:10:28.171Z,0.97
2023-01-19T11:13:12.704Z,1.33
2023-01-19T11:15:55.045Z,1.29
2023-01-19T11:18:30.115Z,1.09
2023-01-19T11:21:02.433Z,1.20
2023-01-19T11:23:44.163Z,1.27
2023-01-19T11:26:16.479Z,1.02
2023-01-19T11:28:48.596Z,1.30
2023-01-19T11:31:15.425Z,1.22
2023-01-19T11:33:43.544Z,1.15
2023-01-19T11:36:21.906Z,1.12
2023-01-19T11:38:51.387Z,0.86
2023-01-19T11:41:20.025Z,0.97
2023-01-19T11:43:51.827Z,0.80
2023-01-19T11:46:19.272Z,0.68
2023-01-19T11:49:02.535Z,1.23
2023-01-19T11:52:04.844Z,1.14
2023-01-19T11:54:47.682Z,0.83
2023-01-19T11:57:17.371Z,1.21
2023-01-19T11:59:44.647Z,1.20
2023-01-19T12:02:24.596Z,1.39
2023-01-19T12:04:58.026Z,1.13
2023-01-19T12:07:30.673Z,1.44
2023-01-19T12:10:25.401Z,1.04
2023-01-19T12:12:53.744Z,1.43
2023-01-19T12:15:28.144Z,1.72
2023-01-19T12:18:00.966Z,1.94
2023-01-19T12:20:41.875Z,2.85
2023-01-19T12:23:11.829Z,2.96
2023-01-19T12:26:04.343Z,3.10
2023-01-19T12:28:35.163Z,3.72
2023-01-19T12:31:04.049Z,3.78
2023-01-19T12:33:40.630Z,4.34
2023-01-19T12:36:41.395Z,4.59
2023-01-19T12:39:19.936Z,4.09
2023-01-19T12:41:47.685Z,4.13
2023-01-19T12:44:20.315Z,4.53
2023-01-19T12:46:50.221Z,4.59
2023-01-19T12:49:40.603Z,4.21
2023-01-19T12:52:20.965Z,4.93
2023-01-19T12:54:57.587Z,4.94
2023-01-19T12:57:56.717Z,4.80
2023-01-19T13:00:23.611Z,5.87
2023-01-19T13:02:53.897Z,4.52
2023-01-19T13:05:46.026Z,4.03
2023-01-19T13:08:13.440Z,4.02
2023-01-19T13:11:12.765Z,3.77
2023-01-19T13:13:48.919Z,4.11
2023-01-19T13:16:18.894Z,4.15
2023-01-19T13:18:48.966Z,3.76
2023-01-19T13:21:36.090Z,4.07
2023-01-19T13:24:08.402Z,4.07
2023-01-19T13:26:42.840Z,3.48
2023-01-19T13:29:17.186Z,4.32
2023-01-19T13:31:46.048Z,4.44
2023-01-19T13:34:17.673Z,4.72
2023-01-19T13:36:47.040Z,3.85
2023-01-19T13:39:18.338Z,4.33
2023-01-19T13:41:47.320Z,4.51
2023-01-19T13:44:21.991Z,3.82
2023-01-19T13:46:50.520Z,4.29
2023-01-19T13:49:29.848Z,3.81
2023-01-19T13:52:21.268Z,4.04
2023-01-19T13:54:53.173Z,3.74
2023-01-19T13:57:23.431Z,4.48
2023-01-19T14:00:12.114Z,3.77
2023-01-19T14:02:42.718Z,3.46
2023-01-19T14:05:21.901Z,3.90
2023-01-19T14:07:48.995Z,3.19
2023-01-19T14:10:16.988Z,2.95
2023-01-19T14:12:58.642Z,3.18
2023-01-19T14:15:26.940Z,3.29
2023-01-19T14:18:10.363Z,3.54
2023-01-19T14:20:37.896Z,3.43
2023-01-19T14:23:06.825Z,3.39
2023-01-19T14:25:36.411Z,3.55
2023-01-19T14:28:28.737Z,3.27
2023-01-19T14:31:01.604Z,3.12
2023-01-19T14:33:48.125Z,3.02
2023-01-19T14:36:17.571Z,2.72
2023-01-19T14:38:46.324Z,2.67
2023-01-19T14:41:40.930Z,2.88
2023-01-19T14:44:10.715Z,3.09
2023-01-19T14:46:38.796Z,2.65
2023-01-19T14:49:06.828Z,2.59
2023-01-19T14:51:33.977Z,2.56
2023-01-19T14:54:02.993Z,2.87
2023-01-19T14:56:32.760Z,2.98
2023-01-19T14:59:01.683Z,2.67
2023-01-19T15:01:29.134Z,2.95
2023-01-19T15:03:57.071Z,2.77
2023-01-19T15:06:26.269Z,2.91
2023-01-19T15:08:54.404Z,2.91
2023-01-19T15:11:30.140Z,2.81
2023-01-19T15:13:57.612Z,2.73
2023-01-19T15:16:25.365Z,2.96
2023-01-19T15:18:52.922Z,2.83
2023-01-19T15:21:23.624Z,2.76
2023-01-19T15:23:50.771Z,2.68
2023-01-19T15:26:20.907Z,2.84
2023-01-19T15:28:49.753Z,2.88
2023-01-19T15:31:19.557Z,2.65
2023-01-19T15:33:46.555Z,2.71
2023-01-19T15:36:19.172Z,2.56
2023-01-19T15:38:47.068Z,2.58
2023-01-19T15:41:18.571Z,2.32
2023-01-19T15:43:45.514Z,2.39
2023-01-19T15:46:16.038Z,2.67
2023-01-19T15:48:43.074Z,2.40
2023-01-19T15:51:15.096Z,2.47
2023-01-19T15:53:42.561Z,2.60
2023-01-19T15:56:16.647Z,2.52
2023-01-19T15:58:43.805Z,2.19
2023-01-19T16:01:17.764Z,2.28
2023-01-19T16:03:45.381Z,2.26
2023-01-19T16:06:13.017Z,2.08
2023-01-19T16:08:40.031Z,2.46
2023-01-19T16:11:12.600Z,2.23
2023-01-19T16:13:40.092Z,2.07
2023-01-19T16:16:18.955Z,2.13
2023-01-19T16:18:46.278Z,2.14
2023-01-19T16:21:13.163Z,1.77
2023-01-19T16:23:40.172Z,1.84
2023-01-19T16:26:23.041Z,1.53
2023-01-19T16:28:49.887Z,1.17
2023-01-19T16:31:16.965Z,1.77
2023-01-19T16:33:45.390Z,1.51
2023-01-19T16:36:30.563Z,1.55
2023-01-19T16:39:26.840Z,1.73
2023-01-19T16:41:53.748Z,1.41
2023-01-19T16:44:20.592Z,1.45
2023-01-19T16:46:49.944Z,1.79
2023-01-19T16:49:22.577Z,1.44
2023-01-19T16:51:50.779Z,1.58
2023-01-19T16:54:20.592Z,1.27
2023-01-19T16:56:48.733Z,1.20
2023-01-19T16:59:17.035Z,1.24
2023-01-19T17:01:45.571Z,1.15
2023-01-19T17:04:13.566Z,1.49
2023-01-19T17:06:40.922Z,1.30
2023-01-19T17:09:09.579Z,1.45
2023-01-19T17:11:36.854Z,1.07
2023-01-19T17:14:21.945Z,1.11
2023-01-19T17:16:49.424Z,1.27
2023-01-19T17:19:18.964Z,1.23
2023-01-19T17:21:48.863Z,1.09
2023-01-19T17:24:16.704Z,1.26
2023-01-19T17:26:46.081Z,1.02
2023-01-19T17:29:12.885Z,1.01
2023-01-19T17:31:39.825Z,1.00
2023-01-19T17:34:07.242Z,0.97
2023-01-19T17:36:34.205Z,0.90
2023-01-19T17:39:06.153Z,0.84
2023-01-19T17:41:35.444Z,1.13
2023-01-19T17:44:04.012Z,1.06
2023-01-19T17:46:31.115Z,0.95
2023-01-19T17:49:01.904Z,0.96
2023-01-19T17:51:30.241Z,0.84
2023-01-19T17:53:58.039Z,0.54
2023-01-19T17:56:29.794Z,0.54
2023-01-19T17:58:58.266Z,0.75
2023-01-19T18:01:28.607Z,0.29
2023-01-19T18:03:55.991Z,0.66
2023-01-19T18:06:23.108Z,0.62
2023-01-19T18:08:50.677Z,0.49
2023-01-19T18:11:19.814Z,0.24
2023-01-19T18:13:48.894Z,0.46
2023-01-19T18:16:20.663Z,0.63
2023-01-19T18:18:49.877Z,0.46
2023-01-19T18:21:17.933Z,0.62
2023-01-19T18:23:46.069Z,0.36
2023-01-19T18:26:15.533Z,0.42
2023-01-19T18:28:42.436Z,0.59
2023-01-19T18:31:12.311Z,0.58
2023-01-19T18:33:40.253Z,0.41
2023-01-19T18:36:08.207Z,0.52
2023-01-19T18:38:36.543Z,0.55
2023-01-19T18:41:06.189Z,0.53
2023-01-19T18:43:33.371Z,0.48
2023-01-19T18:46:00.529Z,0.20
2023-01-19T18:48:27.666Z,0.47
2023-01-19T18:50:54.997Z,0.61
2023-01-19T18:53:22.264Z,0.57
2023-01-19T18:55:58.048Z,0.49
2023-01-19T18:58:28.765Z,0.39
2023-01-19T19:01:00.177Z,0.19
2023-01-19T19:03:27.450Z,0.32
2023-01-19T19:05:54.540Z,0.11
2023-01-19T19:08:21.497Z,0.71
2023-01-19T19:10:48.531Z,0.54
2023-01-19T19:13:17.426Z,0.37
2023-01-19T19:15:44.635Z,0.38
2023-01-19T19:18:14.202Z,0.41
2023-01-19T19:20:43.386Z,0.36
2023-01-19T19:23:11.767Z,0.61
2023-01-19T19:25:38.690Z,0.48
2023-01-19T19:28:05.748Z,0.47
2023-01-19T19:30:35.033Z,0.36
2023-01-19T19:33:02.006Z,0.20
2023-01-19T19:35:29.144Z,0.45
2023-01-19T19:37:57.849Z,0.27
2023-01-19T19:40:28.527Z,0.36
2023-01-19T19:42:58.422Z,0.54
2023-01-19T19:45:25.764Z,0.37
2023-01-19T19:47:52.568Z,0.16
2023-01-19T19:50:19.620Z,0.36
2023-01-19T19:52:46.555Z,0.34
2023-01-19T19:55:13.862Z,0.37
2023-01-19T19:57:40.968Z,0.54
2023-01-19T20:00:08.993Z,0.20
2023-01-19T20:02:36.333Z,0.21
2023-01-19T20:05:03.508Z,0.20
2023-01-19T20:07:30.680Z,0.06
2023-01-19T20:09:57.600Z,0.09
2023-01-19T20:12:24.553Z,0.21
2023-01-19T20:14:51.353Z,-0.03
2023-01-19T20:17:19.366Z,0.12
2023-01-19T20:19:47.728Z,0.21
2023-01-19T20:22:15.397Z,-0.03
2023-01-19T20:24:42.706Z,0.34
2023-01-19T20:27:09.750Z,0.09
2023-01-19T20:29:36.702Z,0.48
2023-01-19T20:32:03.591Z,0.19
2023-01-19T20:34:33.470Z,0.62
2023-01-19T20:37:01.912Z,0.19
2023-01-19T20:39:30.304Z,0.58
2023-01-19T20:41:57.157Z,0.47
2023-01-19T20:44:25.886Z,0.42
2023-01-19T20:46:54.428Z,0.62
2023-01-19T20:49:21.822Z,0.41
2023-01-19T20:51:50.062Z,0.68
2023-01-19T20:54:18.857Z,0.27
2023-01-19T20:56:45.766Z,0.26
2023-01-19T20:59:13.015Z,0.54
2023-01-19T21:01:41.044Z,0.22
2023-01-19T21:04:08.765Z,0.42
2023-01-19T21:06:36.114Z,0.37
2023-01-19T21:09:03.136Z,0.17
2023-01-19T21:11:30.066Z,0.20
2023-01-19T21:13:56.885Z,0.51
2023-01-19T21:16:25.875Z,0.48
2023-01-19T21:18:53.333Z,0.54
2023-01-19T21:21:29.858Z,0.78
2023-01-19T21:23:59.459Z,0.79
2023-01-19T21:26:26.374Z,0.36
2023-01-19T21:28:53.224Z,0.42
2023-01-19T21:31:23.145Z,0.04
2023-01-19T21:33:53.988Z,0.51
2023-01-19T21:36:22.710Z,0.55
2023-01-19T21:38:51.614Z,0.46
2023-01-19T21:41:18.849Z,0.37
2023-01-19T21:43:46.447Z,0.29
2023-01-19T21:46:18.647Z,0.19
2023-01-19T21:48:46.238Z,0.44
2023-01-19T21:51:14.854Z,0.14
2023-01-19T21:53:42.159Z,0.41
2023-01-19T21:56:10.243Z,0.50
2023-01-19T21:58:37.822Z,0.38
2023-01-19T22:01:09.841Z,0.53
2023-01-19T22:03:36.659Z,0.45
2023-01-19T22:06:05.925Z,0.58
2023-01-19T22:08:33.751Z,0.67
2023-01-19T22:11:08.174Z,0.47
2023-01-19T22:13:36.416Z,0.44
2023-01-19T22:16:04.849Z,0.51
2023-01-19T22:18:31.751Z,0.28
2023-01-19T22:21:11.364Z,0.19
2023-01-19T22:23:38.825Z,0.32
2023-01-19T22:26:06.259Z,0.23
2023-01-19T22:28:33.755Z,-0.39
2023-01-19T22:31:15.495Z,0.50
2023-01-19T22:33:43.401Z,-0.15
2023-01-19T22:36:20.121Z,0.21
2023-01-19T22:38:52.383Z,0.38
2023-01-19T22:41:25.585Z,0.36
2023-01-19T22:43:57.656Z,0.40
2023-01-19T22:46:26.678Z,0.35
2023-01-19T22:48:54.433Z,0.39
2023-01-19T22:51:22.943Z,0.50
2023-01-19T22:53:49.740Z,0.46
2023-01-19T22:56:19.525Z,0.29
2023-01-19T22:58:47.307Z,0.29
2023-01-19T23:01:17.538Z,0.36
2023-01-19T23:03:44.419Z,0.36
2023-01-19T23:06:17.303Z,0.17
2023-01-19T23:08:44.808Z,0.46
2023-01-19T23:11:15.439Z,0.07
2023-01-19T23:13:43.019Z,0.44
2023-01-19T23:16:11.191Z,0.26
2023-01-19T23:18:38.503Z,0.11
2023-01-19T23:21:09.487Z,0.23
2023-01-19T23:23:36.769Z,0.02
2023-01-19T23:26:07.218Z,-0.28
2023-01-19T23:28:34.633Z,0.11
2023-01-19T23:31:12.579Z,-0.07
2023-01-19T23:33:39.707Z,0.07
2023-01-19T23:36:06.917Z,-0.10
2023-01-19T23:38:33.778Z,-0.44
2023-01-19T23:41:00.591Z,-0.14
2023-01-19T23:43:27.374Z,-0.52
2023-01-19T23:45:54.280Z,-0.13
2023-01-19T23:48:21.112Z,-0.06
2023-01-19T23:50:47.906Z,0.02
2023-01-19T23:53:14.718Z,-0.28
2023-01-19T23:55:42.098Z,-0.18
2023-01-19T23:58:09.010Z,-0.24
